sensor_id;sensor_type;location;lat;lon;timestamp;P1;durP1;ratioP1;P2;durP2;ratioP2
16994;SDS011;8614;48.522;9.206;2023-12-20T00:00:28;13.00;;;12.20;;
16994;SDS011;8614;48.522;9.206;2023-12-20T00:02:56;13.00;;;12.20;;
16994;SDS011;8614;48.522;9.206;2023-12-20T00:05:24;12.80;;;12.00;;
16994;SDS011;8614;48.522;9.206;2023-12-20T00:07:51;12.87;;;12.17;;
16994;SDS011;8614;48.522;9.206;2023-12-20T00:10:17;12.60;;;11.90;;
16994;SDS011;8614;48.522;9.206;2023-12-20T00:12:44;13.10;;;12.30;;
16994;SDS011;8614;48.522;9.206;2023-12-20T00:15:11;12.50;;;11.80;;
16994;SDS011;8614;48.522;9.206;2023-12-20T00:17:38;12.63;;;11.83;;
16994;SDS011;8614;48.522;9.206;2023-12-20T00:20:07;12.50;;;11.80;;
16994;SDS011;8614;48.522;9.206;2023-12-20T00:22:34;12.80;;;12.10;;
16994;SDS011;8614;48.522;9.206;2023-12-20T00:25:01;12.87;;;12.07;;
16994;SDS011;8614;48.522;9.206;2023-12-20T00:27:28;12.33;;;11.63;;
16994;SDS011;8614;48.522;9.206;2023-12-20T00:29:54;12.43;;;11.73;;
16994;SDS011;8614;48.522;9.206;2023-12-20T00:32:21;12.50;;;11.80;;
16994;SDS011;8614;48.522;9.206;2023-12-20T00:34:48;12.77;;;12.07;;
16994;SDS011;8614;48.522;9.206;2023-12-20T00:37:16;12.53;;;11.83;;
16994;SDS011;8614;48.522;9.206;2023-12-20T00:39:43;12.90;;;12.10;;
16994;SDS011;8614;48.522;9.206;2023-12-20T00:42:10;12.80;;;12.10;;
16994;SDS011;8614;48.522;9.206;2023-12-20T00:44:37;12.43;;;11.73;;
16994;SDS011;8614;48.522;9.206;2023-12-20T00:47:03;12.30;;;11.60;;
16994;SDS011;8614;48.522;9.206;2023-12-20T00:49:30;13.23;;;12.10;;
16994;SDS011;8614;48.522;9.206;2023-12-20T00:51:57;12.60;;;11.90;;
16994;SDS011;8614;48.522;9.206;2023-12-20T00:54:25;12.30;;;11.60;;
16994;SDS011;8614;48.522;9.206;2023-12-20T00:56:52;12.47;;;11.77;;
16994;SDS011;8614;48.522;9.206;2023-12-20T00:59:19;12.40;;;11.70;;
16994;SDS011;8614;48.522;9.206;2023-12-20T01:01:45;12.43;;;11.73;;
16994;SDS011;8614;48.522;9.206;2023-12-20T01:04:12;12.27;;;11.57;;
16994;SDS011;8614;48.522;9.206;2023-12-20T01:06:39;11.70;;;11.10;;
16994;SDS011;8614;48.522;9.206;2023-12-20T01:09:06;11.90;;;11.30;;
16994;SDS011;8614;48.522;9.206;2023-12-20T01:11:34;12.00;;;11.40;;
16994;SDS011;8614;48.522;9.206;2023-12-20T01:14:00;12.00;;;11.30;;
16994;SDS011;8614;48.522;9.206;2023-12-20T01:16:26;11.77;;;11.17;;
16994;SDS011;8614;48.522;9.206;2023-12-20T01:18:53;12.00;;;11.40;;
16994;SDS011;8614;48.522;9.206;2023-12-20T01:21:20;11.93;;;11.30;;
16994;SDS011;8614;48.522;9.206;2023-12-20T01:23:47;11.80;;;11.20;;
16994;SDS011;8614;48.522;9.206;2023-12-20T01:26:14;12.50;;;11.80;;
16994;SDS011;8614;48.522;9.206;2023-12-20T01:28:43;12.37;;;11.77;;
16994;SDS011;8614;48.522;9.206;2023-12-20T01:31:09;12.97;;;12.27;;
16994;SDS011;8614;48.522;9.206;2023-12-20T01:33:36;13.00;;;12.30;;
16994;SDS011;8614;48.522;9.206;2023-12-20T01:36:03;12.87;;;12.17;;
16994;SDS011;8614;48.522;9.206;2023-12-20T01:38:30;13.27;;;12.57;;
16994;SDS011;8614;48.522;9.206;2023-12-20T01:40:57;13.27;;;12.57;;
16994;SDS011;8614;48.522;9.206;2023-12-20T01:43:24;13.37;;;12.67;;
16994;SDS011;8614;48.522;9.206;2023-12-20T01:45:52;13.77;;;13.07;;
16994;SDS011;8614;48.522;9.206;2023-12-20T01:48:20;13.50;;;12.80;;
16994;SDS011;8614;48.522;9.206;2023-12-20T01:50:47;13.83;;;13.10;;
16994;SDS011;8614;48.522;9.206;2023-12-20T01:53:14;13.17;;;12.47;;
16994;SDS011;8614;48.522;9.206;2023-12-20T01:55:42;13.20;;;12.50;;
16994;SDS011;8614;48.522;9.206;2023-12-20T01:58:10;13.53;;;12.73;;
16994;SDS011;8614;48.522;9.206;2023-12-20T02:00:38;13.40;;;12.60;;
16994;SDS011;8614;48.522;9.206;2023-12-20T02:03:06;14.10;;;13.30;;
16994;SDS011;8614;48.522;9.206;2023-12-20T02:05:34;14.07;;;13.30;;
16994;SDS011;8614;48.522;9.206;2023-12-20T02:08:01;13.93;;;13.13;;
16994;SDS011;8614;48.522;9.206;2023-12-20T02:10:28;14.00;;;13.20;;
16994;SDS011;8614;48.522;9.206;2023-12-20T02:12:56;13.80;;;13.00;;
16994;SDS011;8614;48.522;9.206;2023-12-20T02:15:23;14.10;;;13.20;;
16994;SDS011;8614;48.522;9.206;2023-12-20T02:17:50;13.67;;;12.90;;
16994;SDS011;8614;48.522;9.206;2023-12-20T02:20:19;13.57;;;12.87;;
16994;SDS011;8614;48.522;9.206;2023-12-20T02:22:47;13.60;;;12.80;;
16994;SDS011;8614;48.522;9.206;2023-12-20T02:25:14;13.60;;;12.90;;
16994;SDS011;8614;48.522;9.206;2023-12-20T02:27:40;13.47;;;12.77;;
16994;SDS011;8614;48.522;9.206;2023-12-20T02:30:08;13.40;;;12.70;;
16994;SDS011;8614;48.522;9.206;2023-12-20T02:32:36;13.60;;;12.80;;
16994;SDS011;8614;48.522;9.206;2023-12-20T02:35:03;13.23;;;12.53;;
16994;SDS011;8614;48.522;9.206;2023-12-20T02:37:30;13.17;;;12.47;;
16994;SDS011;8614;48.522;9.206;2023-12-20T02:39:59;13.33;;;12.63;;
16994;SDS011;8614;48.522;9.206;2023-12-20T02:42:26;13.03;;;12.33;;
16994;SDS011;8614;48.522;9.206;2023-12-20T02:44:53;13.33;;;12.63;;
16994;SDS011;8614;48.522;9.206;2023-12-20T02:47:20;12.97;;;12.27;;
16994;SDS011;8614;48.522;9.206;2023-12-20T02:49:46;13.20;;;12.50;;
16994;SDS011;8614;48.522;9.206;2023-12-20T02:52:14;13.30;;;12.60;;
16994;SDS011;8614;48.522;9.206;2023-12-20T02:54:41;13.60;;;12.80;;
16994;SDS011;8614;48.522;9.206;2023-12-20T02:57:09;13.40;;;12.60;;
16994;SDS011;8614;48.522;9.206;2023-12-20T02:59:35;13.20;;;12.50;;
16994;SDS011;8614;48.522;9.206;2023-12-20T03:02:02;13.53;;;12.83;;
16994;SDS011;8614;48.522;9.206;2023-12-20T03:04:29;13.70;;;13.00;;
16994;SDS011;8614;48.522;9.206;2023-12-20T03:06:56;13.80;;;13.00;;
16994;SDS011;8614;48.522;9.206;2023-12-20T03:09:23;13.67;;;12.90;;
16994;SDS011;8614;48.522;9.206;2023-12-20T03:11:49;14.20;;;13.50;;
16994;SDS011;8614;48.522;9.206;2023-12-20T03:14:17;14.10;;;13.40;;
16994;SDS011;8614;48.522;9.206;2023-12-20T03:16:46;13.60;;;12.90;;
16994;SDS011;8614;48.522;9.206;2023-12-20T03:19:13;13.90;;;13.10;;
16994;SDS011;8614;48.522;9.206;2023-12-20T03:21:41;14.27;;;13.47;;
16994;SDS011;8614;48.522;9.206;2023-12-20T03:24:07;13.83;;;13.13;;
16994;SDS011;8614;48.522;9.206;2023-12-20T03:26:34;14.40;;;13.60;;
16994;SDS011;8614;48.522;9.206;2023-12-20T03:29:01;14.23;;;13.53;;
16994;SDS011;8614;48.522;9.206;2023-12-20T03:31:29;13.87;;;13.17;;
16994;SDS011;8614;48.522;9.206;2023-12-20T03:33:56;14.70;;;13.90;;
16994;SDS011;8614;48.522;9.206;2023-12-20T03:36:22;14.20;;;13.40;;
16994;SDS011;8614;48.522;9.206;2023-12-20T03:38:49;13.83;;;13.13;;
16994;SDS011;8614;48.522;9.206;2023-12-20T03:41:16;13.83;;;13.13;;
16994;SDS011;8614;48.522;9.206;2023-12-20T03:43:43;13.93;;;13.20;;
16994;SDS011;8614;48.522;9.206;2023-12-20T03:46:09;14.40;;;13.63;;
16994;SDS011;8614;48.522;9.206;2023-12-20T03:48:38;14.40;;;13.70;;
16994;SDS011;8614;48.522;9.206;2023-12-20T03:51:04;14.20;;;13.43;;
16994;SDS011;8614;48.522;9.206;2023-12-20T03:53:31;13.80;;;13.10;;
16994;SDS011;8614;48.522;9.206;2023-12-20T03:55:58;13.70;;;13.00;;
16994;SDS011;8614;48.522;9.206;2023-12-20T03:58:25;13.83;;;13.13;;
16994;SDS011;8614;48.522;9.206;2023-12-20T04:00:52;14.20;;;13.47;;
16994;SDS011;8614;48.522;9.206;2023-12-20T04:03:19;13.60;;;12.90;;
16994;SDS011;8614;48.522;9.206;2023-12-20T04:05:47;13.67;;;12.97;;
16994;SDS011;8614;48.522;9.206;2023-12-20T04:08:13;13.60;;;12.90;;
16994;SDS011;8614;48.522;9.206;2023-12-20T04:10:40;14.50;;;13.70;;
16994;SDS011;8614;48.522;9.206;2023-12-20T04:13:07;14.30;;;13.40;;
16994;SDS011;8614;48.522;9.206;2023-12-20T04:15:34;14.20;;;13.40;;
16994;SDS011;8614;48.522;9.206;2023-12-20T04:18:01;14.30;;;13.50;;
16994;SDS011;8614;48.522;9.206;2023-12-20T04:20:27;13.80;;;13.10;;
16994;SDS011;8614;48.522;9.206;2023-12-20T04:22:55;14.10;;;13.30;;
16994;SDS011;8614;48.522;9.206;2023-12-20T04:25:22;14.53;;;13.73;;
16994;SDS011;8614;48.522;9.206;2023-12-20T04:27:50;14.00;;;13.30;;
16994;SDS011;8614;48.522;9.206;2023-12-20T04:30:16;13.90;;;13.20;;
16994;SDS011;8614;48.522;9.206;2023-12-20T04:32:43;13.80;;;13.10;;
16994;SDS011;8614;48.522;9.206;2023-12-20T04:35:10;13.67;;;12.97;;
16994;SDS011;8614;48.522;9.206;2023-12-20T04:37:37;14.43;;;13.63;;
16994;SDS011;8614;48.522;9.206;2023-12-20T04:40:06;14.43;;;13.53;;
16994;SDS011;8614;48.522;9.206;2023-12-20T04:42:33;14.40;;;13.60;;
16994;SDS011;8614;48.522;9.206;2023-12-20T04:45:00;14.50;;;13.70;;
16994;SDS011;8614;48.522;9.206;2023-12-20T04:47:27;14.00;;;13.30;;
16994;SDS011;8614;48.522;9.206;2023-12-20T04:49:54;14.03;;;13.33;;
16994;SDS011;8614;48.522;9.206;2023-12-20T04:52:21;14.00;;;13.30;;
16994;SDS011;8614;48.522;9.206;2023-12-20T04:54:48;14.20;;;13.50;;
16994;SDS011;8614;48.522;9.206;2023-12-20T04:57:16;13.70;;;13.00;;
16994;SDS011;8614;48.522;9.206;2023-12-20T04:59:44;13.97;;;13.27;;
16994;SDS011;8614;48.522;9.206;2023-12-20T05:02:10;14.00;;;13.30;;
16994;SDS011;8614;48.522;9.206;2023-12-20T05:04:37;14.47;;;13.73;;
16994;SDS011;8614;48.522;9.206;2023-12-20T05:07:04;14.50;;;13.70;;
16994;SDS011;8614;48.522;9.206;2023-12-20T05:09:31;14.67;;;13.87;;
16994;SDS011;8614;48.522;9.206;2023-12-20T05:11:58;14.73;;;13.83;;
16994;SDS011;8614;48.522;9.206;2023-12-20T05:14:27;14.03;;;13.33;;
16994;SDS011;8614;48.522;9.206;2023-12-20T05:16:53;14.53;;;13.73;;
16994;SDS011;8614;48.522;9.206;2023-12-20T05:19:20;14.30;;;13.60;;
16994;SDS011;8614;48.522;9.206;2023-12-20T05:21:47;14.40;;;13.60;;
16994;SDS011;8614;48.522;9.206;2023-12-20T05:24:14;14.13;;;13.43;;
16994;SDS011;8614;48.522;9.206;2023-12-20T05:26:41;14.23;;;13.53;;
16994;SDS011;8614;48.522;9.206;2023-12-20T05:29:08;14.33;;;13.63;;
16994;SDS011;8614;48.522;9.206;2023-12-20T05:31:36;14.30;;;13.50;;
16994;SDS011;8614;48.522;9.206;2023-12-20T05:34:03;14.03;;;13.33;;
16994;SDS011;8614;48.522;9.206;2023-12-20T05:36:29;14.27;;;13.57;;
16994;SDS011;8614;48.522;9.206;2023-12-20T05:38:56;14.33;;;13.57;;
16994;SDS011;8614;48.522;9.206;2023-12-20T05:41:23;14.30;;;13.60;;
16994;SDS011;8614;48.522;9.206;2023-12-20T05:43:50;14.50;;;13.80;;
16994;SDS011;8614;48.522;9.206;2023-12-20T05:46:17;14.07;;;13.37;;
16994;SDS011;8614;48.522;9.206;2023-12-20T05:48:45;14.33;;;13.63;;
16994;SDS011;8614;48.522;9.206;2023-12-20T05:51:12;14.70;;;14.00;;
16994;SDS011;8614;48.522;9.206;2023-12-20T05:53:38;14.60;;;13.90;;
16994;SDS011;8614;48.522;9.206;2023-12-20T05:56:05;15.00;;;14.23;;
16994;SDS011;8614;48.522;9.206;2023-12-20T05:58:32;14.80;;;14.00;;
16994;SDS011;8614;48.522;9.206;2023-12-20T06:00:59;14.50;;;13.80;;
16994;SDS011;8614;48.522;9.206;2023-12-20T06:03:26;14.60;;;13.80;;
16994;SDS011;8614;48.522;9.206;2023-12-20T06:05:54;14.20;;;13.50;;
16994;SDS011;8614;48.522;9.206;2023-12-20T06:08:21;14.57;;;13.77;;
16994;SDS011;8614;48.522;9.206;2023-12-20T06:10:48;14.33;;;13.63;;
16994;SDS011;8614;48.522;9.206;2023-12-20T06:13:14;14.53;;;13.83;;
16994;SDS011;8614;48.522;9.206;2023-12-20T06:15:41;14.47;;;13.67;;
16994;SDS011;8614;48.522;9.206;2023-12-20T06:18:08;14.37;;;13.57;;
16994;SDS011;8614;48.522;9.206;2023-12-20T06:20:35;14.30;;;13.50;;
16994;SDS011;8614;48.522;9.206;2023-12-20T06:23:03;14.50;;;13.70;;
16994;SDS011;8614;48.522;9.206;2023-12-20T06:25:30;14.50;;;13.70;;
16994;SDS011;8614;48.522;9.206;2023-12-20T06:27:57;14.07;;;13.37;;
16994;SDS011;8614;48.522;9.206;2023-12-20T06:30:24;14.70;;;13.90;;
16994;SDS011;8614;48.522;9.206;2023-12-20T06:32:52;14.17;;;13.47;;
16994;SDS011;8614;48.522;9.206;2023-12-20T06:35:19;14.13;;;13.43;;
16994;SDS011;8614;48.522;9.206;2023-12-20T06:37:46;14.10;;;13.40;;
16994;SDS011;8614;48.522;9.206;2023-12-20T06:40:14;14.03;;;13.23;;
16994;SDS011;8614;48.522;9.206;2023-12-20T06:42:42;14.27;;;13.57;;
16994;SDS011;8614;48.522;9.206;2023-12-20T06:45:09;14.03;;;13.33;;
16994;SDS011;8614;48.522;9.206;2023-12-20T06:47:37;14.17;;;13.40;;
16994;SDS011;8614;48.522;9.206;2023-12-20T06:50:04;15.20;;;14.40;;
16994;SDS011;8614;48.522;9.206;2023-12-20T06:52:33;15.20;;;14.40;;
16994;SDS011;8614;48.522;9.206;2023-12-20T06:55:00;14.90;;;14.10;;
16994;SDS011;8614;48.522;9.206;2023-12-20T06:57:28;14.60;;;13.80;;
16994;SDS011;8614;48.522;9.206;2023-12-20T06:59:55;15.07;;;14.27;;
16994;SDS011;8614;48.522;9.206;2023-12-20T07:02:23;15.10;;;14.20;;
16994;SDS011;8614;48.522;9.206;2023-12-20T07:04:49;15.20;;;14.30;;
16994;SDS011;8614;48.522;9.206;2023-12-20T07:07:16;14.40;;;13.70;;
16994;SDS011;8614;48.522;9.206;2023-12-20T07:09:43;14.60;;;13.80;;
16994;SDS011;8614;48.522;9.206;2023-12-20T07:12:10;15.10;;;14.20;;
16994;SDS011;8614;48.522;9.206;2023-12-20T07:14:38;15.10;;;14.20;;
16994;SDS011;8614;48.522;9.206;2023-12-20T07:17:05;14.40;;;13.60;;
16994;SDS011;8614;48.522;9.206;2023-12-20T07:19:36;14.13;;;13.43;;
16994;SDS011;8614;48.522;9.206;2023-12-20T07:22:03;14.03;;;13.30;;
16994;SDS011;8614;48.522;9.206;2023-12-20T07:24:30;13.60;;;12.90;;
16994;SDS011;8614;48.522;9.206;2023-12-20T07:26:57;13.90;;;13.20;;
16994;SDS011;8614;48.522;9.206;2023-12-20T07:29:24;13.77;;;13.07;;
16994;SDS011;8614;48.522;9.206;2023-12-20T07:31:52;13.50;;;12.70;;
16994;SDS011;8614;48.522;9.206;2023-12-20T07:34:19;13.77;;;12.97;;
16994;SDS011;8614;48.522;9.206;2023-12-20T07:36:46;14.07;;;13.27;;
16994;SDS011;8614;48.522;9.206;2023-12-20T07:39:13;14.00;;;13.20;;
16994;SDS011;8614;48.522;9.206;2023-12-20T07:41:40;13.70;;;13.00;;
16994;SDS011;8614;48.522;9.206;2023-12-20T07:44:07;14.10;;;13.30;;
16994;SDS011;8614;48.522;9.206;2023-12-20T07:46:33;14.23;;;13.43;;
16994;SDS011;8614;48.522;9.206;2023-12-20T07:49:01;14.07;;;13.27;;
16994;SDS011;8614;48.522;9.206;2023-12-20T07:51:30;14.50;;;13.70;;
16994;SDS011;8614;48.522;9.206;2023-12-20T07:53:56;14.77;;;13.97;;
16994;SDS011;8614;48.522;9.206;2023-12-20T07:56:24;13.80;;;13.10;;
16994;SDS011;8614;48.522;9.206;2023-12-20T07:58:51;14.13;;;13.37;;
16994;SDS011;8614;48.522;9.206;2023-12-20T08:01:18;13.80;;;13.10;;
16994;SDS011;8614;48.522;9.206;2023-12-20T08:03:44;14.47;;;13.67;;
16994;SDS011;8614;48.522;9.206;2023-12-20T08:06:13;14.43;;;13.63;;
16994;SDS011;8614;48.522;9.206;2023-12-20T08:08:39;15.00;;;14.20;;
16994;SDS011;8614;48.522;9.206;2023-12-20T08:11:06;13.90;;;13.20;;
16994;SDS011;8614;48.522;9.206;2023-12-20T08:13:33;13.90;;;13.20;;
16994;SDS011;8614;48.522;9.206;2023-12-20T08:15:59;13.57;;;12.87;;
16994;SDS011;8614;48.522;9.206;2023-12-20T08:18:27;13.83;;;13.13;;
16994;SDS011;8614;48.522;9.206;2023-12-20T08:20:54;13.97;;;13.17;;
16994;SDS011;8614;48.522;9.206;2023-12-20T08:23:22;14.50;;;13.70;;
16994;SDS011;8614;48.522;9.206;2023-12-20T08:25:49;15.00;;;14.20;;
16994;SDS011;8614;48.522;9.206;2023-12-20T08:28:16;15.00;;;14.20;;
16994;SDS011;8614;48.522;9.206;2023-12-20T08:30:43;14.63;;;13.83;;
16994;SDS011;8614;48.522;9.206;2023-12-20T08:33:10;14.67;;;13.87;;
16994;SDS011;8614;48.522;9.206;2023-12-20T08:35:38;14.70;;;13.90;;
16994;SDS011;8614;48.522;9.206;2023-12-20T08:38:05;14.60;;;13.80;;
16994;SDS011;8614;48.522;9.206;2023-12-20T08:40:33;14.10;;;13.40;;
16994;SDS011;8614;48.522;9.206;2023-12-20T08:43:00;14.10;;;13.27;;
16994;SDS011;8614;48.522;9.206;2023-12-20T08:45:27;14.30;;;13.60;;
16994;SDS011;8614;48.522;9.206;2023-12-20T08:47:54;14.00;;;13.20;;
16994;SDS011;8614;48.522;9.206;2023-12-20T08:50:21;14.00;;;13.20;;
16994;SDS011;8614;48.522;9.206;2023-12-20T08:52:48;14.07;;;13.37;;
16994;SDS011;8614;48.522;9.206;2023-12-20T08:55:15;13.90;;;13.20;;
16994;SDS011;8614;48.522;9.206;2023-12-20T08:57:44;13.33;;;12.63;;
16994;SDS011;8614;48.522;9.206;2023-12-20T09:00:12;13.93;;;13.23;;
16994;SDS011;8614;48.522;9.206;2023-12-20T09:02:41;13.60;;;12.90;;
16994;SDS011;8614;48.522;9.206;2023-12-20T09:05:08;13.50;;;12.80;;
16994;SDS011;8614;48.522;9.206;2023-12-20T09:07:34;13.80;;;13.10;;
16994;SDS011;8614;48.522;9.206;2023-12-20T09:10:01;13.60;;;12.90;;
16994;SDS011;8614;48.522;9.206;2023-12-20T09:12:28;13.80;;;13.10;;
16994;SDS011;8614;48.522;9.206;2023-12-20T09:14:57;13.93;;;13.23;;
16994;SDS011;8614;48.522;9.206;2023-12-20T09:17:23;13.57;;;12.87;;
16994;SDS011;8614;48.522;9.206;2023-12-20T09:19:50;14.07;;;13.27;;
16994;SDS011;8614;48.522;9.206;2023-12-20T09:22:19;13.87;;;12.87;;
16994;SDS011;8614;48.522;9.206;2023-12-20T09:24:45;13.70;;;13.00;;
16994;SDS011;8614;48.522;9.206;2023-12-20T09:27:12;14.00;;;13.10;;
16994;SDS011;8614;48.522;9.206;2023-12-20T09:29:39;13.80;;;12.90;;
16994;SDS011;8614;48.522;9.206;2023-12-20T09:32:07;13.23;;;12.50;;
16994;SDS011;8614;48.522;9.206;2023-12-20T09:34:34;13.73;;;12.97;;
16994;SDS011;8614;48.522;9.206;2023-12-20T09:37:02;13.87;;;12.97;;
16994;SDS011;8614;48.522;9.206;2023-12-20T09:39:30;12.93;;;12.23;;
16994;SDS011;8614;48.522;9.206;2023-12-20T09:42:00;13.90;;;12.83;;
16994;SDS011;8614;48.522;9.206;2023-12-20T09:44:27;13.70;;;12.90;;
16994;SDS011;8614;48.522;9.206;2023-12-20T09:46:55;14.00;;;13.03;;
16994;SDS011;8614;48.522;9.206;2023-12-20T09:49:23;13.30;;;12.60;;
16994;SDS011;8614;48.522;9.206;2023-12-20T09:51:54;13.90;;;13.10;;
16994;SDS011;8614;48.522;9.206;2023-12-20T09:54:21;15.23;;;14.13;;
16994;SDS011;8614;48.522;9.206;2023-12-20T09:56:49;14.20;;;13.40;;
16994;SDS011;8614;48.522;9.206;2023-12-20T09:59:19;14.10;;;13.20;;
16994;SDS011;8614;48.522;9.206;2023-12-20T10:01:46;13.87;;;13.07;;
16994;SDS011;8614;48.522;9.206;2023-12-20T10:04:12;13.63;;;12.80;;
16994;SDS011;8614;48.522;9.206;2023-12-20T10:06:41;15.10;;;14.00;;
16994;SDS011;8614;48.522;9.206;2023-12-20T10:09:08;13.97;;;13.17;;
16994;SDS011;8614;48.522;9.206;2023-12-20T10:11:36;13.77;;;12.97;;
16994;SDS011;8614;48.522;9.206;2023-12-20T10:14:03;14.50;;;13.40;;
16994;SDS011;8614;48.522;9.206;2023-12-20T10:16:31;13.63;;;12.83;;
16994;SDS011;8614;48.522;9.206;2023-12-20T10:18:58;13.30;;;12.50;;
16994;SDS011;8614;48.522;9.206;2023-12-20T10:21:26;13.50;;;12.60;;
16994;SDS011;8614;48.522;9.206;2023-12-20T10:23:54;13.67;;;12.57;;
16994;SDS011;8614;48.522;9.206;2023-12-20T10:26:22;13.47;;;12.57;;
16994;SDS011;8614;48.522;9.206;2023-12-20T10:28:50;14.00;;;13.00;;
16994;SDS011;8614;48.522;9.206;2023-12-20T10:31:27;14.27;;;13.30;;
16994;SDS011;8614;48.522;9.206;2023-12-20T10:33:56;14.67;;;13.67;;
16994;SDS011;8614;48.522;9.206;2023-12-20T10:36:24;14.40;;;13.40;;
16994;SDS011;8614;48.522;9.206;2023-12-20T10:38:52;13.67;;;12.87;;
16994;SDS011;8614;48.522;9.206;2023-12-20T10:41:24;14.70;;;13.67;;
16994;SDS011;8614;48.522;9.206;2023-12-20T10:43:53;13.53;;;12.73;;
16994;SDS011;8614;48.522;9.206;2023-12-20T10:46:22;13.80;;;12.80;;
16994;SDS011;8614;48.522;9.206;2023-12-20T10:48:51;13.90;;;13.10;;
16994;SDS011;8614;48.522;9.206;2023-12-20T10:51:20;13.87;;;13.00;;
16994;SDS011;8614;48.522;9.206;2023-12-20T10:53:48;13.47;;;12.63;;
16994;SDS011;8614;48.522;9.206;2023-12-20T10:56:17;13.60;;;12.80;;
16994;SDS011;8614;48.522;9.206;2023-12-20T10:58:44;14.20;;;13.20;;
16994;SDS011;8614;48.522;9.206;2023-12-20T11:01:12;13.27;;;12.50;;
16994;SDS011;8614;48.522;9.206;2023-12-20T11:03:42;13.20;;;12.40;;
16994;SDS011;8614;48.522;9.206;2023-12-20T11:06:17;13.60;;;12.50;;
16994;SDS011;8614;48.522;9.206;2023-12-20T11:08:56;13.13;;;12.43;;
16994;SDS011;8614;48.522;9.206;2023-12-20T11:11:37;13.97;;;13.07;;
16994;SDS011;8614;48.522;9.206;2023-12-20T11:14:15;14.13;;;13.20;;
16994;SDS011;8614;48.522;9.206;2023-12-20T11:16:45;13.40;;;12.60;;
16994;SDS011;8614;48.522;9.206;2023-12-20T11:19:12;13.50;;;12.60;;
16994;SDS011;8614;48.522;9.206;2023-12-20T11:21:40;4.87;;;4.50;;
16994;SDS011;8614;48.522;9.206;2023-12-20T11:24:07;4.70;;;3.50;;
16994;SDS011;8614;48.522;9.206;2023-12-20T11:26:35;5.57;;;5.17;;
16994;SDS011;8614;48.522;9.206;2023-12-20T11:31:57;5.97;;;5.50;;
16994;SDS011;8614;48.522;9.206;2023-12-20T11:34:26;7.33;;;6.73;;
16994;SDS011;8614;48.522;9.206;2023-12-20T11:36:56;7.97;;;5.63;;
16994;SDS011;8614;48.522;9.206;2023-12-20T11:39:24;7.27;;;6.07;;
16994;SDS011;8614;48.522;9.206;2023-12-20T11:41:53;8.53;;;7.80;;
16994;SDS011;8614;48.522;9.206;2023-12-20T11:44:21;4.40;;;3.80;;
16994;SDS011;8614;48.522;9.206;2023-12-20T11:46:48;4.40;;;3.60;;
16994;SDS011;8614;48.522;9.206;2023-12-20T11:49:56;8.37;;;7.87;;
16994;SDS011;8614;48.522;9.206;2023-12-20T11:52:38;4.70;;;4.30;;
16994;SDS011;8614;48.522;9.206;2023-12-20T11:55:22;5.70;;;5.20;;
16994;SDS011;8614;48.522;9.206;2023-12-20T11:57:57;4.47;;;4.07;;
16994;SDS011;8614;48.522;9.206;2023-12-20T12:00:24;4.77;;;4.37;;
16994;SDS011;8614;48.522;9.206;2023-12-20T12:02:55;3.73;;;3.43;;
16994;SDS011;8614;48.522;9.206;2023-12-20T12:05:22;7.73;;;7.13;;
16994;SDS011;8614;48.522;9.206;2023-12-20T12:07:49;7.23;;;5.73;;
16994;SDS011;8614;48.522;9.206;2023-12-20T12:10:16;4.67;;;4.10;;
16994;SDS011;8614;48.522;9.206;2023-12-20T12:12:43;5.73;;;5.23;;
16994;SDS011;8614;48.522;9.206;2023-12-20T12:15:11;7.60;;;5.63;;
16994;SDS011;8614;48.522;9.206;2023-12-20T12:17:38;6.10;;;5.30;;
16994;SDS011;8614;48.522;9.206;2023-12-20T12:20:05;3.40;;;3.10;;
16994;SDS011;8614;48.522;9.206;2023-12-20T12:22:35;4.17;;;3.00;;
16994;SDS011;8614;48.522;9.206;2023-12-20T12:25:09;6.50;;;3.53;;
16994;SDS011;8614;48.522;9.206;2023-12-20T12:27:36;6.30;;;5.90;;
16994;SDS011;8614;48.522;9.206;2023-12-20T12:30:05;5.43;;;3.80;;
16994;SDS011;8614;48.522;9.206;2023-12-20T12:32:34;4.20;;;3.80;;
16994;SDS011;8614;48.522;9.206;2023-12-20T12:35:02;4.30;;;3.90;;
16994;SDS011;8614;48.522;9.206;2023-12-20T12:37:31;4.27;;;3.70;;
16994;SDS011;8614;48.522;9.206;2023-12-20T12:40:00;5.73;;;3.50;;
16994;SDS011;8614;48.522;9.206;2023-12-20T12:42:28;5.27;;;4.00;;
16994;SDS011;8614;48.522;9.206;2023-12-20T12:44:55;4.67;;;3.70;;
16994;SDS011;8614;48.522;9.206;2023-12-20T12:47:21;4.10;;;3.80;;
16994;SDS011;8614;48.522;9.206;2023-12-20T12:49:51;5.13;;;3.90;;
16994;SDS011;8614;48.522;9.206;2023-12-20T12:52:18;5.17;;;3.90;;
16994;SDS011;8614;48.522;9.206;2023-12-20T12:54:45;5.67;;;4.20;;
16994;SDS011;8614;48.522;9.206;2023-12-20T12:57:13;7.20;;;4.60;;
16994;SDS011;8614;48.522;9.206;2023-12-20T12:59:40;5.13;;;4.63;;
16994;SDS011;8614;48.522;9.206;2023-12-20T13:02:09;5.63;;;5.00;;
16994;SDS011;8614;48.522;9.206;2023-12-20T13:04:35;5.67;;;5.17;;
16994;SDS011;8614;48.522;9.206;2023-12-20T13:07:04;6.03;;;5.43;;
16994;SDS011;8614;48.522;9.206;2023-12-20T13:09:30;6.13;;;5.63;;
16994;SDS011;8614;48.522;9.206;2023-12-20T13:11:57;7.03;;;5.80;;
16994;SDS011;8614;48.522;9.206;2023-12-20T13:14:24;6.73;;;6.13;;
16994;SDS011;8614;48.522;9.206;2023-12-20T13:16:51;7.10;;;6.50;;
16994;SDS011;8614;48.522;9.206;2023-12-20T13:19:18;10.60;;;9.87;;
16994;SDS011;8614;48.522;9.206;2023-12-20T13:21:45;7.13;;;6.53;;
16994;SDS011;8614;48.522;9.206;2023-12-20T13:24:13;8.20;;;7.60;;
16994;SDS011;8614;48.522;9.206;2023-12-20T13:26:40;8.77;;;7.93;;
16994;SDS011;8614;48.522;9.206;2023-12-20T13:29:06;7.87;;;7.37;;
16994;SDS011;8614;48.522;9.206;2023-12-20T13:31:33;8.53;;;7.80;;
16994;SDS011;8614;48.522;9.206;2023-12-20T13:34:01;8.13;;;7.40;;
16994;SDS011;8614;48.522;9.206;2023-12-20T13:36:28;9.37;;;8.57;;
16994;SDS011;8614;48.522;9.206;2023-12-20T13:38:55;9.97;;;9.20;;
16994;SDS011;8614;48.522;9.206;2023-12-20T13:41:23;11.53;;;10.83;;
16994;SDS011;8614;48.522;9.206;2023-12-20T13:43:50;13.93;;;13.00;;
16994;SDS011;8614;48.522;9.206;2023-12-20T13:46:17;12.13;;;11.23;;
16994;SDS011;8614;48.522;9.206;2023-12-20T13:48:44;6.33;;;5.83;;
16994;SDS011;8614;48.522;9.206;2023-12-20T13:51:11;8.27;;;7.60;;
16994;SDS011;8614;48.522;9.206;2023-12-20T13:53:38;12.43;;;11.37;;
16994;SDS011;8614;48.522;9.206;2023-12-20T13:56:05;5.30;;;4.90;;
16994;SDS011;8614;48.522;9.206;2023-12-20T13:58:34;8.77;;;8.00;;
16994;SDS011;8614;48.522;9.206;2023-12-20T14:01:01;7.57;;;7.07;;
16994;SDS011;8614;48.522;9.206;2023-12-20T14:03:29;8.93;;;8.33;;
16994;SDS011;8614;48.522;9.206;2023-12-20T14:05:56;6.40;;;5.13;;
16994;SDS011;8614;48.522;9.206;2023-12-20T14:08:23;8.33;;;7.27;;
16994;SDS011;8614;48.522;9.206;2023-12-20T14:10:50;12.27;;;11.37;;
16994;SDS011;8614;48.522;9.206;2023-12-20T14:13:17;12.00;;;11.23;;
16994;SDS011;8614;48.522;9.206;2023-12-20T14:15:45;11.50;;;10.70;;
16994;SDS011;8614;48.522;9.206;2023-12-20T14:18:13;12.00;;;11.00;;
16994;SDS011;8614;48.522;9.206;2023-12-20T14:20:40;11.80;;;11.00;;
16994;SDS011;8614;48.522;9.206;2023-12-20T14:23:08;12.13;;;10.97;;
16994;SDS011;8614;48.522;9.206;2023-12-20T14:25:35;12.23;;;11.10;;
16994;SDS011;8614;48.522;9.206;2023-12-20T14:28:03;11.80;;;11.00;;
16994;SDS011;8614;48.522;9.206;2023-12-20T14:30:30;12.30;;;11.27;;
16994;SDS011;8614;48.522;9.206;2023-12-20T14:32:58;12.13;;;11.23;;
16994;SDS011;8614;48.522;9.206;2023-12-20T14:35:25;12.03;;;11.20;;
16994;SDS011;8614;48.522;9.206;2023-12-20T14:37:52;12.17;;;11.27;;
16994;SDS011;8614;48.522;9.206;2023-12-20T14:40:19;11.77;;;10.98;;
16994;SDS011;8614;48.522;9.206;2023-12-20T14:42:45;12.10;;;11.20;;